MMLM/LMM METAR and TAF weather

Enter ICAO airport designator
Station Type Date Time Source
MMLM METAR 2024/02/26 16:47 UTC NOAA

MMLM 261647Z 07007KT 10SM BKN220 21/14 A3008 RMK 8/008 HZY ISOL AC


Station Type Date Time Source
MMLM Decoded METAR 2024/02/26 16:47 UTC NOAA

Los Mochis Airport, Mexico (MMLM) 25-41N 109-05W
Feb 26, 2024 - 11:47 AM EST / 2024.02.26 1647 UTC
Wind: from the ENE (070 degrees) at 8 MPH (7 KT):0
Visibility: 10 mile(s):0
Sky conditions: mostly cloudy
Temperature: 69 F (21 C)
Dew Point: 57 F (14 C)
Relative Humidity: 64%
Pressure (altimeter): 30.08 in. Hg (1018 hPa)
ob: MMLM 261647Z 07007KT 10SM BKN220 21/14 A3008 RMK 8/008 HZY ISOL AC
cycle: 17

Station Type Date Time Source
MMLM TAF 2024/02/26 18:21 UTC NOAA